createdAt,value
2019-03-30T00:00:50.010Z,7.83
2019-03-30T00:01:49.999Z,7.87
2019-03-30T00:02:50.012Z,7.87
2019-03-30T00:03:50.004Z,7.82
2019-03-30T00:04:49.970Z,7.80
2019-03-30T00:05:49.956Z,7.76
2019-03-30T00:06:49.946Z,7.79
2019-03-30T00:07:49.932Z,7.85
2019-03-30T00:08:49.931Z,7.90
2019-03-30T00:09:49.915Z,7.87
2019-03-30T00:10:49.902Z,7.87
2019-03-30T00:11:49.896Z,7.80
2019-03-30T00:12:49.879Z,7.85
2019-03-30T00:13:49.877Z,7.88
2019-03-30T00:14:49.877Z,7.77
2019-03-30T00:15:49.841Z,7.76
2019-03-30T00:16:49.828Z,7.83
2019-03-30T00:17:49.818Z,7.77
2019-03-30T00:18:49.809Z,7.79
2019-03-30T00:19:49.798Z,7.80
2019-03-30T00:20:49.815Z,7.73
2019-03-30T00:21:49.771Z,7.77
2019-03-30T00:22:49.763Z,7.69
2019-03-30T00:23:49.754Z,7.73
2019-03-30T00:24:49.738Z,7.67
2019-03-30T00:25:49.731Z,7.67
2019-03-30T00:26:49.731Z,7.70
2019-03-30T00:27:49.708Z,7.67
2019-03-30T00:28:49.696Z,7.66
2019-03-30T00:29:49.687Z,7.61
2019-03-30T00:30:49.892Z,7.58
2019-03-30T00:31:49.675Z,7.48
2019-03-30T00:32:49.650Z,7.54
2019-03-30T00:33:49.637Z,7.54
2019-03-30T00:34:49.626Z,7.50
2019-03-30T00:35:49.615Z,7.53
2019-03-30T00:36:49.603Z,7.39
2019-03-30T00:37:49.601Z,7.50
2019-03-30T00:38:49.603Z,7.43
2019-03-30T00:39:49.571Z,7.42
2019-03-30T00:40:49.769Z,7.42
2019-03-30T00:41:49.547Z,7.50
2019-03-30T00:42:49.543Z,7.43
2019-03-30T00:43:49.531Z,7.48
2019-03-30T00:44:49.535Z,7.33
2019-03-30T00:45:49.508Z,7.36
2019-03-30T00:46:49.495Z,7.40
2019-03-30T00:47:49.481Z,7.35
2019-03-30T00:48:49.787Z,7.28
2019-03-30T00:49:50.264Z,7.35
2019-03-30T00:50:49.458Z,7.38
2019-03-30T00:51:49.463Z,7.35
2019-03-30T00:52:49.427Z,7.29
2019-03-30T00:53:49.411Z,7.35
2019-03-30T00:54:49.400Z,7.33
2019-03-30T00:55:49.395Z,7.31
2019-03-30T00:56:49.380Z,7.24
2019-03-30T00:57:49.380Z,7.23
2019-03-30T00:58:49.357Z,7.29
2019-03-30T00:59:49.347Z,7.17
2019-03-30T01:00:49.357Z,7.17
2019-03-30T01:01:49.324Z,7.11
2019-03-30T01:02:49.328Z,7.17
2019-03-30T01:03:49.312Z,7.07
2019-03-30T01:04:49.294Z,7.14
2019-03-30T01:05:49.276Z,7.14
2019-03-30T01:06:49.264Z,7.10
2019-03-30T01:07:49.254Z,7.05
2019-03-30T01:08:49.260Z,7.05
2019-03-30T01:09:49.236Z,7.11
2019-03-30T01:10:49.232Z,7.07
2019-03-30T01:11:49.210Z,7.10
2019-03-30T01:12:49.199Z,7.13
2019-03-30T01:13:49.189Z,7.06
2019-03-30T01:14:49.175Z,7.02
2019-03-30T01:15:49.187Z,7.13
2019-03-30T01:16:49.154Z,6.99
2019-03-30T01:17:49.144Z,7.02
2019-03-30T01:18:49.129Z,6.97
2019-03-30T01:20:01.967Z,6.95
2019-03-30T01:20:50.137Z,6.97
2019-03-30T01:21:49.099Z,6.87
2019-03-30T01:22:49.091Z,6.93
2019-03-30T01:23:49.071Z,6.89
2019-03-30T01:24:49.060Z,6.85
2019-03-30T01:25:49.052Z,6.92
2019-03-30T01:26:49.048Z,6.88
2019-03-30T01:27:49.027Z,6.82
2019-03-30T01:28:49.026Z,6.89
2019-03-30T01:29:49.005Z,6.88
2019-03-30T01:30:48.996Z,6.89
2019-03-30T01:31:49.000Z,6.92
2019-03-30T01:32:48.987Z,6.93
2019-03-30T01:33:48.974Z,6.89
2019-03-30T01:34:48.951Z,6.88
2019-03-30T01:35:48.939Z,6.89
2019-03-30T01:36:48.931Z,6.82
2019-03-30T01:37:48.916Z,6.85
2019-03-30T01:38:48.904Z,6.84
2019-03-30T01:39:48.904Z,6.82
2019-03-30T01:40:48.887Z,6.72
2019-03-30T01:41:48.873Z,6.79
2019-03-30T01:42:48.862Z,6.72
2019-03-30T01:43:48.851Z,6.75
2019-03-30T01:44:48.852Z,6.75
2019-03-30T01:45:48.828Z,6.72
2019-03-30T01:46:48.815Z,6.64
2019-03-30T01:47:48.808Z,6.72
2019-03-30T01:48:48.795Z,6.67
2019-03-30T01:49:48.783Z,6.72
2019-03-30T01:50:48.790Z,6.60
2019-03-30T01:51:48.758Z,6.67
2019-03-30T01:52:48.751Z,6.63
2019-03-30T01:53:48.732Z,6.64
2019-03-30T01:54:48.723Z,6.57
2019-03-30T01:55:48.713Z,6.64
2019-03-30T01:56:48.713Z,6.62
2019-03-30T01:57:48.688Z,6.60
2019-03-30T01:58:48.680Z,6.59
2019-03-30T01:59:48.668Z,6.62
2019-03-30T02:00:48.657Z,6.54
2019-03-30T02:01:48.660Z,6.54
2019-03-30T02:02:48.635Z,6.51
2019-03-30T02:03:48.667Z,6.54
2019-03-30T02:04:48.612Z,6.52
2019-03-30T02:05:48.603Z,6.45
2019-03-30T02:06:48.585Z,6.44
2019-03-30T02:07:48.588Z,6.42
2019-03-30T02:08:48.567Z,6.44
2019-03-30T02:09:48.553Z,6.46
2019-03-30T02:10:48.549Z,6.46
2019-03-30T02:11:48.535Z,6.44
2019-03-30T02:12:48.536Z,6.51
2019-03-30T02:13:48.520Z,6.42
2019-03-30T02:14:48.521Z,6.35
2019-03-30T02:15:48.488Z,6.36
2019-03-30T02:16:48.474Z,6.42
2019-03-30T02:17:48.463Z,6.39
2019-03-30T02:18:48.464Z,6.39
2019-03-30T02:19:48.443Z,6.38
2019-03-30T02:20:48.427Z,6.42
2019-03-30T02:21:48.418Z,6.41
2019-03-30T02:22:48.407Z,6.41
2019-03-30T02:23:48.410Z,6.31
2019-03-30T02:24:48.386Z,6.33
2019-03-30T02:25:48.377Z,6.42
2019-03-30T02:26:48.364Z,6.36
2019-03-30T02:27:48.355Z,6.39
2019-03-30T02:28:48.343Z,6.28
2019-03-30T02:29:48.345Z,6.30
2019-03-30T02:30:48.323Z,6.27
2019-03-30T02:31:48.311Z,6.33
2019-03-30T02:32:48.300Z,6.26
2019-03-30T02:33:48.288Z,6.20
2019-03-30T02:34:48.297Z,6.16
2019-03-30T02:35:48.266Z,6.20
2019-03-30T02:36:48.259Z,6.26
2019-03-30T02:37:48.239Z,6.16
2019-03-30T02:38:48.230Z,6.14
2019-03-30T02:39:48.232Z,6.19
2019-03-30T02:40:48.205Z,6.31
2019-03-30T02:41:48.336Z,6.12
2019-03-30T02:42:48.271Z,6.09
2019-03-30T02:43:48.172Z,6.08
2019-03-30T02:44:48.161Z,6.11
2019-03-30T02:45:48.173Z,6.17
2019-03-30T02:46:48.142Z,6.12
2019-03-30T02:47:48.131Z,6.11
2019-03-30T02:48:48.120Z,6.07
2019-03-30T02:49:48.108Z,6.17
2019-03-30T02:50:50.321Z,6.07
2019-03-30T02:51:48.102Z,6.17
2019-03-30T02:52:48.072Z,6.16
2019-03-30T02:53:48.064Z,6.04
2019-03-30T02:54:48.048Z,6.09
2019-03-30T02:55:48.051Z,5.99
2019-03-30T02:56:48.033Z,6.08
2019-03-30T02:57:48.041Z,6.07
2019-03-30T02:58:48.004Z,5.97
2019-03-30T02:59:47.999Z,5.94
2019-03-30T03:00:47.984Z,5.97
2019-03-30T03:01:47.970Z,5.91
2019-03-30T03:02:47.960Z,5.87
2019-03-30T03:03:47.957Z,5.94
2019-03-30T03:04:47.943Z,5.90
2019-03-30T03:05:47.930Z,5.91
2019-03-30T03:06:47.920Z,5.90
2019-03-30T03:07:47.908Z,5.91
2019-03-30T03:08:48.019Z,5.98
2019-03-30T03:09:47.896Z,5.93
2019-03-30T03:10:47.885Z,5.93
2019-03-30T03:11:47.858Z,5.90
2019-03-30T03:12:47.847Z,5.87
2019-03-30T03:13:47.857Z,5.89
2019-03-30T03:14:47.837Z,5.90
2019-03-30T03:15:47.821Z,5.80
2019-03-30T03:16:47.802Z,5.84
2019-03-30T03:17:47.795Z,5.91
2019-03-30T03:18:47.796Z,5.76
2019-03-30T03:19:47.774Z,5.83
2019-03-30T03:21:06.105Z,5.79
2019-03-30T03:21:48.745Z,5.76
2019-03-30T03:22:47.737Z,5.71
2019-03-30T03:23:47.727Z,5.71
2019-03-30T03:24:47.716Z,5.72
2019-03-30T03:25:47.705Z,5.65
2019-03-30T03:26:47.703Z,5.68
2019-03-30T03:27:47.696Z,5.66
2019-03-30T03:28:47.665Z,5.65
2019-03-30T03:29:47.668Z,5.62
2019-03-30T03:30:47.644Z,5.65
2019-03-30T03:31:47.634Z,5.64
2019-03-30T03:32:47.632Z,5.65
2019-03-30T03:33:47.642Z,5.53
2019-03-30T03:34:47.604Z,5.65
2019-03-30T03:35:47.586Z,5.64
2019-03-30T03:36:47.582Z,5.57
2019-03-30T03:37:47.567Z,5.61
2019-03-30T03:38:47.568Z,5.54
2019-03-30T03:39:47.561Z,5.65
2019-03-30T03:40:47.536Z,5.56
2019-03-30T03:41:47.530Z,5.65
2019-03-30T03:42:47.604Z,5.59
2019-03-30T03:43:47.501Z,5.47
2019-03-30T03:44:47.508Z,5.57
2019-03-30T03:45:47.480Z,5.59
2019-03-30T03:46:47.475Z,5.47
2019-03-30T03:47:47.489Z,5.46
2019-03-30T03:48:47.450Z,5.48
2019-03-30T03:49:47.455Z,5.47
2019-03-30T03:50:47.435Z,5.47
2019-03-30T03:51:47.417Z,5.46
2019-03-30T03:52:47.397Z,5.57
2019-03-30T03:53:47.415Z,5.57
2019-03-30T03:54:47.387Z,5.48
2019-03-30T03:55:47.370Z,5.44
2019-03-30T03:56:47.370Z,5.50
2019-03-30T03:57:47.342Z,5.46
2019-03-30T03:58:47.346Z,5.47
2019-03-30T03:59:47.329Z,5.39
2019-03-30T04:00:47.312Z,5.43
2019-03-30T04:01:47.321Z,5.35
2019-03-30T04:02:47.290Z,5.33
2019-03-30T04:03:47.274Z,5.36
2019-03-30T04:04:47.880Z,5.39
2019-03-30T04:05:47.324Z,5.35
2019-03-30T04:06:47.240Z,5.33
2019-03-30T04:07:47.250Z,5.39
2019-03-30T04:08:47.218Z,5.36
2019-03-30T04:09:47.211Z,5.33
2019-03-30T04:10:47.210Z,5.32
2019-03-30T04:11:47.185Z,5.23
2019-03-30T04:12:47.193Z,5.28
2019-03-30T04:13:47.177Z,5.23
2019-03-30T04:14:47.158Z,5.23
2019-03-30T04:15:47.150Z,5.20
2019-03-30T04:16:47.133Z,5.23
2019-03-30T04:17:47.117Z,5.15
2019-03-30T04:18:48.230Z,5.21
2019-03-30T04:19:47.121Z,5.18
2019-03-30T04:20:47.092Z,5.20
2019-03-30T04:21:47.077Z,5.17
2019-03-30T04:22:47.065Z,5.15
2019-03-30T04:23:47.081Z,5.18
2019-03-30T04:24:47.037Z,5.17
2019-03-30T04:25:47.034Z,5.17
2019-03-30T04:26:47.022Z,5.17
2019-03-30T04:27:47.016Z,5.18
2019-03-30T04:28:46.999Z,5.11
2019-03-30T04:29:46.997Z,5.14
2019-03-30T04:30:46.969Z,5.21
2019-03-30T04:31:46.974Z,5.18
2019-03-30T04:32:46.958Z,5.14
2019-03-30T04:33:46.942Z,5.12
2019-03-30T04:34:46.932Z,5.17
2019-03-30T04:35:46.943Z,5.05
2019-03-30T04:36:46.915Z,5.00
2019-03-30T04:37:46.901Z,5.05
2019-03-30T04:38:46.890Z,5.05
2019-03-30T04:39:46.872Z,5.07
2019-03-30T04:40:46.880Z,5.10
2019-03-30T04:41:46.853Z,5.07
2019-03-30T04:42:46.838Z,5.04
2019-03-30T04:43:46.829Z,5.04
2019-03-30T04:44:46.818Z,5.10
2019-03-30T04:45:46.805Z,5.07
2019-03-30T04:46:46.808Z,5.02
2019-03-30T04:47:46.805Z,5.02
2019-03-30T04:48:46.776Z,4.99
2019-03-30T04:49:46.761Z,4.99
2019-03-30T04:50:46.746Z,4.97
2019-03-30T04:51:57.002Z,4.99
2019-03-30T04:52:47.748Z,4.94
2019-03-30T04:53:46.713Z,5.05
2019-03-30T04:54:46.705Z,5.00
2019-03-30T04:55:46.700Z,4.94
2019-03-30T04:56:46.721Z,4.97
2019-03-30T04:57:49.852Z,5.02
2019-03-30T04:58:46.766Z,4.97
2019-03-30T04:59:46.645Z,5.04
2019-03-30T05:00:46.645Z,5.02
2019-03-30T05:01:46.624Z,5.02
2019-03-30T05:02:46.615Z,5.04
2019-03-30T05:03:46.609Z,5.04
2019-03-30T05:04:46.623Z,4.99
2019-03-30T05:05:46.597Z,5.05
2019-03-30T05:06:46.572Z,4.99
2019-03-30T05:07:46.612Z,4.99
2019-03-30T05:08:46.546Z,4.94
2019-03-30T05:09:46.541Z,4.92
2019-03-30T05:10:46.557Z,4.93
2019-03-30T05:11:46.515Z,5.00
2019-03-30T05:12:46.633Z,4.96
2019-03-30T05:13:46.513Z,4.93
2019-03-30T05:14:46.482Z,4.97
2019-03-30T05:15:46.473Z,4.93
2019-03-30T05:16:46.480Z,4.90
2019-03-30T05:17:48.078Z,4.92
2019-03-30T05:18:46.452Z,4.90
2019-03-30T05:19:46.424Z,4.90
2019-03-30T05:20:46.497Z,4.90
2019-03-30T05:21:46.407Z,4.92
2019-03-30T05:22:46.393Z,4.93
2019-03-30T05:23:46.378Z,4.97
2019-03-30T05:24:46.381Z,4.97
2019-03-30T05:25:46.359Z,4.89
2019-03-30T05:26:46.342Z,4.93
2019-03-30T05:27:46.334Z,4.96
2019-03-30T05:28:46.325Z,4.94
2019-03-30T05:29:46.345Z,5.00
2019-03-30T05:30:46.314Z,4.96
2019-03-30T05:31:46.294Z,5.00
2019-03-30T05:32:46.277Z,5.02
2019-03-30T05:33:46.270Z,4.97
2019-03-30T05:34:46.269Z,4.89
2019-03-30T05:35:46.260Z,4.90
2019-03-30T05:36:46.233Z,5.04
2019-03-30T05:37:46.219Z,4.99
2019-03-30T05:38:46.217Z,4.93
2019-03-30T05:39:46.213Z,4.96
2019-03-30T05:40:46.192Z,5.04
2019-03-30T05:41:46.199Z,5.02
2019-03-30T05:42:46.164Z,4.99
2019-03-30T05:43:46.151Z,4.99
2019-03-30T05:44:46.144Z,4.89
2019-03-30T05:45:46.127Z,4.96
2019-03-30T05:46:46.122Z,4.92
2019-03-30T05:47:46.115Z,4.89
2019-03-30T05:48:46.101Z,4.99
2019-03-30T05:49:46.090Z,4.96
2019-03-30T05:50:46.078Z,5.05
2019-03-30T05:51:46.068Z,5.02
2019-03-30T05:52:46.068Z,5.12
2019-03-30T05:53:46.050Z,5.04
2019-03-30T05:54:46.034Z,5.00
2019-03-30T05:55:46.023Z,4.96
2019-03-30T05:56:46.003Z,5.00
2019-03-30T05:57:46.000Z,5.04
2019-03-30T05:58:46.011Z,5.08
2019-03-30T05:59:45.974Z,5.12
2019-03-30T06:00:45.970Z,5.12
2019-03-30T06:01:45.952Z,5.15
2019-03-30T06:02:45.937Z,5.11
2019-03-30T06:03:45.943Z,5.17
2019-03-30T06:04:45.940Z,5.17
2019-03-30T06:05:45.912Z,5.20
2019-03-30T06:06:45.904Z,5.25
2019-03-30T06:07:45.883Z,5.26
2019-03-30T06:08:45.875Z,5.18
2019-03-30T06:09:45.879Z,5.26
2019-03-30T06:10:45.857Z,5.23
2019-03-30T06:11:45.839Z,5.23
2019-03-30T06:12:45.827Z,5.26
2019-03-30T06:13:45.820Z,5.30
2019-03-30T06:14:45.807Z,5.26
2019-03-30T06:15:45.828Z,5.36
2019-03-30T06:16:45.787Z,5.36
2019-03-30T06:17:45.772Z,5.36
2019-03-30T06:18:45.756Z,5.35
2019-03-30T06:19:45.755Z,5.41
2019-03-30T06:20:45.738Z,5.43
2019-03-30T06:21:45.739Z,5.43
2019-03-30T06:22:45.727Z,5.46
2019-03-30T06:23:48.460Z,5.44
2019-03-30T06:24:45.705Z,5.47
2019-03-30T06:25:45.680Z,5.51
2019-03-30T06:26:45.695Z,5.46
2019-03-30T06:27:45.655Z,5.48
2019-03-30T06:28:45.648Z,5.50
2019-03-30T06:29:45.637Z,5.64
2019-03-30T06:30:45.631Z,5.64
2019-03-30T06:31:46.842Z,5.64
2019-03-30T06:32:45.618Z,5.61
2019-03-30T06:33:45.591Z,5.66
2019-03-30T06:34:45.584Z,5.71
2019-03-30T06:35:45.572Z,5.68
2019-03-30T06:36:45.562Z,5.82
2019-03-30T06:37:45.564Z,5.80
2019-03-30T06:38:45.556Z,5.82
2019-03-30T06:39:45.527Z,5.90
2019-03-30T06:40:45.520Z,5.89
2019-03-30T06:41:45.507Z,5.98
2019-03-30T06:42:45.492Z,5.93
2019-03-30T06:43:45.480Z,6.08
2019-03-30T06:44:45.489Z,6.11
2019-03-30T06:45:45.456Z,6.08
2019-03-30T06:46:45.455Z,6.05
2019-03-30T06:47:45.435Z,6.22
2019-03-30T06:48:45.429Z,6.22
2019-03-30T06:49:45.432Z,6.22
2019-03-30T06:50:45.403Z,6.33
2019-03-30T06:51:45.393Z,6.31
2019-03-30T06:52:56.871Z,6.30
2019-03-30T06:53:46.368Z,6.46
2019-03-30T06:54:45.357Z,6.35
2019-03-30T06:55:45.363Z,6.39
2019-03-30T06:56:45.335Z,6.52
2019-03-30T06:57:45.323Z,6.59
2019-03-30T06:58:45.311Z,6.62
2019-03-30T06:59:45.301Z,6.63
2019-03-30T07:00:45.286Z,6.79
2019-03-30T07:01:45.293Z,6.75
2019-03-30T07:02:45.267Z,6.74
2019-03-30T07:03:45.256Z,6.84
2019-03-30T07:04:45.253Z,6.87
2019-03-30T07:05:45.346Z,6.84
2019-03-30T07:06:45.235Z,6.89
2019-03-30T07:07:45.213Z,6.93
2019-03-30T07:08:45.195Z,6.95
2019-03-30T07:09:45.187Z,7.02
2019-03-30T07:10:45.177Z,7.14
2019-03-30T07:11:45.165Z,7.18
2019-03-30T07:12:45.172Z,7.54
2019-03-30T07:13:45.139Z,7.69
2019-03-30T07:14:45.131Z,7.80
2019-03-30T07:15:45.123Z,7.85
2019-03-30T07:16:45.112Z,8.05
2019-03-30T07:17:45.150Z,8.18
2019-03-30T07:18:45.101Z,8.30
2019-03-30T07:19:45.087Z,8.36
2019-03-30T07:20:45.067Z,8.44
2019-03-30T07:21:45.052Z,8.46
2019-03-30T07:22:45.043Z,8.45
2019-03-30T07:23:45.028Z,8.44
2019-03-30T07:24:45.027Z,8.46
2019-03-30T07:25:45.008Z,8.53
2019-03-30T07:26:44.996Z,8.55
2019-03-30T07:27:44.988Z,8.52
2019-03-30T07:28:47.119Z,8.73
2019-03-30T07:29:44.971Z,8.78
2019-03-30T07:30:45.002Z,8.89
2019-03-30T07:31:44.935Z,9.00
2019-03-30T07:32:44.927Z,9.08
2019-03-30T07:33:44.919Z,9.14
2019-03-30T07:34:44.907Z,9.10
2019-03-30T07:35:44.915Z,9.21
2019-03-30T07:36:44.883Z,9.25
2019-03-30T07:37:44.979Z,9.22
2019-03-30T07:38:44.863Z,9.22
2019-03-30T07:39:44.852Z,9.43
2019-03-30T07:40:44.842Z,9.50
2019-03-30T07:41:44.943Z,9.46
2019-03-30T07:42:44.811Z,9.54
2019-03-30T07:43:44.808Z,9.56
2019-03-30T07:44:44.802Z,9.58
2019-03-30T07:45:44.791Z,9.79
2019-03-30T07:46:44.767Z,9.77
2019-03-30T07:47:44.779Z,9.73
2019-03-30T07:48:44.749Z,9.83
2019-03-30T07:49:44.739Z,9.83
2019-03-30T07:50:44.728Z,9.84
2019-03-30T07:51:44.716Z,9.87
2019-03-30T07:52:44.703Z,9.92
2019-03-30T07:53:45.151Z,10.04
2019-03-30T07:54:44.683Z,10.13
2019-03-30T07:55:44.668Z,10.20
2019-03-30T07:56:44.659Z,10.42
2019-03-30T07:57:44.647Z,10.46
2019-03-30T07:58:44.635Z,10.53
2019-03-30T07:59:44.647Z,10.64
2019-03-30T08:00:44.611Z,10.72
2019-03-30T08:01:44.604Z,10.81
2019-03-30T08:02:44.591Z,10.97
2019-03-30T08:03:44.579Z,11.11
2019-03-30T08:04:44.567Z,11.17
2019-03-30T08:05:44.573Z,11.27
2019-03-30T08:06:44.547Z,11.29
2019-03-30T08:07:44.543Z,11.27
2019-03-30T08:08:44.522Z,11.30
2019-03-30T08:09:44.511Z,11.35
2019-03-30T08:10:44.499Z,11.40
2019-03-30T08:11:44.508Z,11.51
2019-03-30T08:12:44.479Z,11.48
2019-03-30T08:13:44.467Z,11.52
2019-03-30T08:14:45.203Z,11.65
2019-03-30T08:15:44.442Z,11.69
2019-03-30T08:16:44.431Z,11.83
2019-03-30T08:17:44.438Z,11.97
2019-03-30T08:18:44.411Z,12.03
2019-03-30T08:19:44.399Z,12.12
2019-03-30T08:20:44.392Z,12.12
2019-03-30T08:21:44.376Z,12.22
2019-03-30T08:22:44.395Z,12.28
2019-03-30T08:23:44.373Z,12.28
2019-03-30T08:24:44.343Z,12.32
2019-03-30T08:25:44.342Z,12.42
2019-03-30T08:26:44.319Z,12.55
2019-03-30T08:27:44.314Z,12.70
2019-03-30T08:28:44.328Z,12.85
2019-03-30T08:29:44.287Z,12.93
2019-03-30T08:30:44.275Z,13.01
2019-03-30T08:31:44.265Z,13.05
2019-03-30T08:32:44.256Z,13.16
2019-03-30T08:33:44.279Z,13.20
2019-03-30T08:34:44.256Z,13.37
2019-03-30T08:35:44.236Z,13.33
2019-03-30T08:36:44.208Z,13.37
2019-03-30T08:37:44.192Z,13.52
2019-03-30T08:38:44.184Z,13.50
2019-03-30T08:39:44.189Z,13.49
2019-03-30T08:40:44.159Z,13.52
2019-03-30T08:41:44.164Z,13.52
2019-03-30T08:42:44.139Z,13.67
2019-03-30T08:43:44.128Z,13.68
2019-03-30T08:44:44.124Z,13.78
2019-03-30T08:45:44.119Z,13.86
2019-03-30T08:46:44.094Z,13.86
2019-03-30T08:47:44.083Z,13.87
2019-03-30T08:48:44.074Z,13.96
2019-03-30T08:49:44.056Z,14.04
2019-03-30T08:50:44.061Z,13.99
2019-03-30T08:51:44.037Z,14.07
2019-03-30T08:52:44.048Z,14.11
2019-03-30T08:53:53.961Z,14.22
2019-03-30T08:54:44.999Z,14.53
2019-03-30T08:55:43.991Z,14.54
2019-03-30T08:56:43.987Z,14.72
2019-03-30T08:57:43.970Z,14.68
2019-03-30T08:58:43.976Z,14.86
2019-03-30T08:59:43.947Z,15.02
2019-03-30T09:00:43.939Z,14.96
2019-03-30T09:01:43.923Z,15.04
2019-03-30T09:02:43.912Z,15.14
2019-03-30T09:03:43.896Z,15.10
2019-03-30T09:04:43.910Z,15.10
2019-03-30T09:05:43.880Z,15.19
2019-03-30T09:06:43.867Z,15.24
2019-03-30T09:07:43.915Z,15.25
2019-03-30T09:08:43.844Z,15.51
2019-03-30T09:09:43.837Z,15.51
2019-03-30T09:10:43.835Z,15.52
2019-03-30T09:11:43.922Z,15.62
2019-03-30T09:12:43.799Z,15.73
2019-03-30T09:13:43.787Z,15.91
2019-03-30T09:14:43.775Z,16.12
2019-03-30T09:15:43.759Z,16.12
2019-03-30T09:16:43.762Z,16.21
2019-03-30T09:17:43.744Z,16.13
2019-03-30T09:18:43.732Z,16.13
2019-03-30T09:19:43.720Z,16.10
2019-03-30T09:20:43.703Z,16.00
2019-03-30T09:21:43.707Z,15.94
2019-03-30T09:22:43.686Z,15.88
2019-03-30T09:23:43.671Z,15.95
2019-03-30T09:24:43.659Z,15.94
2019-03-30T09:25:43.666Z,15.91
2019-03-30T09:26:43.639Z,15.97
2019-03-30T09:27:43.634Z,16.04
2019-03-30T09:28:43.615Z,16.08
2019-03-30T09:29:43.603Z,16.04
2019-03-30T09:30:43.596Z,16.08
2019-03-30T09:31:43.578Z,16.13
2019-03-30T09:32:45.195Z,16.24
2019-03-30T09:33:43.556Z,16.32
2019-03-30T09:34:43.543Z,16.35
2019-03-30T09:35:43.537Z,16.42
2019-03-30T09:36:43.659Z,16.32
2019-03-30T09:37:43.514Z,16.49
2019-03-30T09:38:43.519Z,16.57
2019-03-30T09:39:43.500Z,16.58
2019-03-30T09:40:43.481Z,16.56
2019-03-30T09:41:43.469Z,16.53
2019-03-30T09:42:43.458Z,16.54
2019-03-30T09:43:43.448Z,16.53
2019-03-30T09:44:43.453Z,16.49
2019-03-30T09:45:43.427Z,16.57
2019-03-30T09:46:43.410Z,16.71
2019-03-30T09:47:43.402Z,16.72
2019-03-30T09:48:43.397Z,16.90
2019-03-30T09:49:43.374Z,16.94
2019-03-30T09:50:43.380Z,17.04
2019-03-30T09:51:43.354Z,17.01
2019-03-30T09:52:43.344Z,16.89
2019-03-30T09:53:43.330Z,16.96
2019-03-30T09:54:43.322Z,16.89
2019-03-30T09:55:43.311Z,16.94
2019-03-30T09:56:43.308Z,16.78
2019-03-30T09:57:43.293Z,16.74
2019-03-30T09:58:43.274Z,16.71
2019-03-30T09:59:43.264Z,16.71
2019-03-30T10:00:43.254Z,16.54
2019-03-30T10:01:43.296Z,16.75
2019-03-30T10:02:43.233Z,16.87
2019-03-30T10:03:43.224Z,16.94
2019-03-30T10:04:43.208Z,16.93
2019-03-30T10:05:43.196Z,17.01
2019-03-30T10:06:43.182Z,17.23
2019-03-30T10:07:43.186Z,17.15
2019-03-30T10:08:43.167Z,17.05
2019-03-30T10:09:43.180Z,17.08
2019-03-30T10:10:43.143Z,17.11
2019-03-30T10:11:43.131Z,17.06
2019-03-30T10:12:43.135Z,17.14
2019-03-30T10:13:43.234Z,17.09
2019-03-30T10:14:43.099Z,17.11
2019-03-30T10:15:43.087Z,17.15
2019-03-30T10:16:43.073Z,17.01
2019-03-30T10:17:43.065Z,16.90
2019-03-30T10:18:43.065Z,16.87
2019-03-30T10:19:43.045Z,16.90
2019-03-30T10:20:43.027Z,16.91
2019-03-30T10:21:43.020Z,16.94
2019-03-30T10:22:43.010Z,17.09
2019-03-30T10:23:42.994Z,17.20
2019-03-30T10:24:42.996Z,17.19
2019-03-30T10:25:42.972Z,17.26
2019-03-30T10:26:42.959Z,17.29
2019-03-30T10:27:42.947Z,17.39
2019-03-30T10:28:42.943Z,17.59
2019-03-30T10:29:42.944Z,17.74
2019-03-30T10:30:42.916Z,17.87
2019-03-30T10:31:42.913Z,18.08
2019-03-30T10:32:42.895Z,18.15
2019-03-30T10:33:42.883Z,18.25
2019-03-30T10:34:42.874Z,18.07
2019-03-30T10:35:42.883Z,18.13
2019-03-30T10:36:42.853Z,17.98
2019-03-30T10:37:42.841Z,17.86
2019-03-30T10:38:42.876Z,17.76
2019-03-30T10:39:42.816Z,17.80
2019-03-30T10:40:42.852Z,17.76
2019-03-30T10:41:42.806Z,17.59
2019-03-30T10:42:42.784Z,17.56
2019-03-30T10:43:42.770Z,17.54
2019-03-30T10:44:42.768Z,17.63
2019-03-30T10:45:42.927Z,17.64
2019-03-30T10:46:42.753Z,17.57
2019-03-30T10:47:42.782Z,17.57
2019-03-30T10:48:42.713Z,17.67
2019-03-30T10:49:42.722Z,17.78
2019-03-30T10:50:42.697Z,17.80
2019-03-30T10:51:42.678Z,17.97
2019-03-30T10:52:42.685Z,17.97
2019-03-30T10:53:42.701Z,17.94
2019-03-30T10:54:52.622Z,18.08
2019-03-30T10:55:43.638Z,18.00
2019-03-30T10:56:42.625Z,18.23
2019-03-30T10:57:42.623Z,18.50
2019-03-30T10:58:42.632Z,18.60
2019-03-30T10:59:42.595Z,18.70
2019-03-30T11:00:42.577Z,18.81
2019-03-30T11:01:42.565Z,18.96
2019-03-30T11:02:42.559Z,18.92
2019-03-30T11:03:42.554Z,19.00
2019-03-30T11:04:42.553Z,18.89
2019-03-30T11:05:42.530Z,19.07
2019-03-30T11:06:42.510Z,18.93
2019-03-30T11:07:42.499Z,19.02
2019-03-30T11:08:42.486Z,19.11
2019-03-30T11:09:42.477Z,19.26
2019-03-30T11:10:42.572Z,19.34
2019-03-30T11:11:42.467Z,19.33
2019-03-30T11:12:42.441Z,19.22
2019-03-30T11:13:42.430Z,19.09
2019-03-30T11:14:42.693Z,19.02
2019-03-30T11:15:42.410Z,19.09
2019-03-30T11:16:42.408Z,18.92
2019-03-30T11:17:42.385Z,18.96
2019-03-30T11:18:42.375Z,19.12
2019-03-30T11:19:42.365Z,18.90
2019-03-30T11:20:42.353Z,18.93
2019-03-30T11:21:42.358Z,18.99
2019-03-30T11:22:42.326Z,18.73
2019-03-30T11:23:42.322Z,18.58
2019-03-30T11:24:42.305Z,18.80
2019-03-30T11:25:42.303Z,18.84
2019-03-30T11:26:42.288Z,18.90
2019-03-30T11:27:42.303Z,18.96
2019-03-30T11:28:42.259Z,18.88
2019-03-30T11:29:42.248Z,18.92
2019-03-30T11:30:42.236Z,18.99
2019-03-30T11:31:42.230Z,19.11
2019-03-30T11:32:42.220Z,19.16
2019-03-30T11:33:42.219Z,19.15
2019-03-30T11:34:42.192Z,19.14
2019-03-30T11:35:42.179Z,19.11
2019-03-30T11:36:42.175Z,18.99
2019-03-30T11:37:42.163Z,19.04
2019-03-30T11:38:42.163Z,19.16
2019-03-30T11:39:42.140Z,19.40
2019-03-30T11:40:42.132Z,19.66
2019-03-30T11:41:42.116Z,19.67
2019-03-30T11:42:42.107Z,19.67
2019-03-30T11:43:42.094Z,19.76
2019-03-30T11:44:42.094Z,19.71
2019-03-30T11:45:42.073Z,19.76
2019-03-30T11:46:42.062Z,19.62
2019-03-30T11:47:42.051Z,19.71
2019-03-30T11:48:42.141Z,19.63
2019-03-30T11:49:42.026Z,19.31
2019-03-30T11:50:42.025Z,18.96
2019-03-30T11:51:42.022Z,18.99
2019-03-30T11:52:41.994Z,18.74
2019-03-30T11:53:42.000Z,18.66
2019-03-30T11:54:41.972Z,18.59
2019-03-30T11:55:41.960Z,18.40
2019-03-30T11:56:41.947Z,18.13
2019-03-30T11:57:41.951Z,18.15
2019-03-30T11:58:41.927Z,18.10
2019-03-30T11:59:41.912Z,18.11
2019-03-30T12:00:41.902Z,18.11
2019-03-30T12:01:41.890Z,18.18
2019-03-30T12:02:41.884Z,18.08
2019-03-30T12:03:41.886Z,18.13
2019-03-30T12:04:41.857Z,18.13
2019-03-30T12:05:41.842Z,18.23
2019-03-30T12:06:41.834Z,18.16
2019-03-30T12:07:41.826Z,18.19
2019-03-30T12:08:41.814Z,18.08
2019-03-30T12:09:41.826Z,18.13
2019-03-30T12:10:41.790Z,18.16
2019-03-30T12:11:41.782Z,18.33
2019-03-30T12:12:41.768Z,18.38
2019-03-30T12:13:41.754Z,18.44
2019-03-30T12:14:41.742Z,18.60
2019-03-30T12:15:41.750Z,18.77
2019-03-30T12:16:41.746Z,18.77
2019-03-30T12:17:41.715Z,18.56
2019-03-30T12:18:41.698Z,18.49
2019-03-30T12:19:41.719Z,18.52
2019-03-30T12:20:41.673Z,18.45
2019-03-30T12:21:41.671Z,18.45
2019-03-30T12:22:41.733Z,18.53
2019-03-30T12:23:42.814Z,18.68
2019-03-30T12:24:41.643Z,18.84
2019-03-30T12:25:41.670Z,18.77
2019-03-30T12:26:41.617Z,18.62
2019-03-30T12:27:41.598Z,18.66
2019-03-30T12:28:41.598Z,18.66
2019-03-30T12:29:44.422Z,18.66
2019-03-30T12:30:41.566Z,18.66
2019-03-30T12:31:41.550Z,18.66
2019-03-30T12:32:41.716Z,18.75
2019-03-30T12:33:41.542Z,18.68
2019-03-30T12:34:41.518Z,18.65
2019-03-30T12:35:41.506Z,18.89
2019-03-30T12:36:41.491Z,19.00
2019-03-30T12:37:41.482Z,19.18
2019-03-30T12:38:41.470Z,19.36
2019-03-30T12:39:41.494Z,19.37
2019-03-30T12:40:41.462Z,19.26
2019-03-30T12:41:41.442Z,19.31
2019-03-30T12:42:41.426Z,19.12
2019-03-30T12:43:41.414Z,18.86
2019-03-30T12:44:41.402Z,18.93
2019-03-30T12:45:41.414Z,19.02
2019-03-30T12:46:41.378Z,18.93
2019-03-30T12:47:41.366Z,18.80
2019-03-30T12:48:41.364Z,18.75
2019-03-30T12:49:41.346Z,18.70
2019-03-30T12:50:41.336Z,18.89
2019-03-30T12:51:41.334Z,19.15
2019-03-30T12:52:41.314Z,19.18
2019-03-30T12:53:50.250Z,19.37
2019-03-30T12:54:42.290Z,19.55
2019-03-30T12:55:49.117Z,19.58
2019-03-30T12:56:42.262Z,19.34
2019-03-30T12:57:41.255Z,19.26
2019-03-30T12:58:41.259Z,19.44
2019-03-30T12:59:41.231Z,19.26
2019-03-30T13:00:41.225Z,19.30
2019-03-30T13:01:41.207Z,19.27
2019-03-30T13:02:41.197Z,19.16
2019-03-30T13:03:41.191Z,19.30
2019-03-30T13:04:41.188Z,19.30
2019-03-30T13:05:41.166Z,19.15
2019-03-30T13:06:41.153Z,19.37
2019-03-30T13:07:41.138Z,19.51